sensor_id;sensor_type;location;lat;lon;timestamp;temperature;humidity
41437;DHT22;27178;49.460;10.850;2023-09-19T00:02:20;22.60;76.50
41437;DHT22;27178;49.460;10.850;2023-09-19T00:04:48;21.40;75.40
41437;DHT22;27178;49.460;10.850;2023-09-19T00:07:16;22.10;76.00
41437;DHT22;27178;49.460;10.850;2023-09-19T00:09:45;21.40;75.30
41437;DHT22;27178;49.460;10.850;2023-09-19T00:12:14;23.00;76.60
41437;DHT22;27178;49.460;10.850;2023-09-19T00:14:42;21.40;75.40
41437;DHT22;27178;49.460;10.850;2023-09-19T00:17:10;22.20;75.90
41437;DHT22;27178;49.460;10.850;2023-09-19T00:19:40;21.40;75.40
41437;DHT22;27178;49.460;10.850;2023-09-19T00:22:09;22.30;76.00
41437;DHT22;27178;49.460;10.850;2023-09-19T00:24:38;22.00;75.80
41437;DHT22;27178;49.460;10.850;2023-09-19T00:27:07;21.30;75.20
41437;DHT22;27178;49.460;10.850;2023-09-19T00:29:35;22.20;75.90
41437;DHT22;27178;49.460;10.850;2023-09-19T00:32:06;22.50;75.80
41437;DHT22;27178;49.460;10.850;2023-09-19T00:34:35;21.30;75.00
41437;DHT22;27178;49.460;10.850;2023-09-19T00:37:05;21.30;74.90
41437;DHT22;27178;49.460;10.850;2023-09-19T00:39:33;21.60;74.80
41437;DHT22;27178;49.460;10.850;2023-09-19T00:42:01;21.80;75.00
41437;DHT22;27178;49.460;10.850;2023-09-19T00:44:32;21.20;74.70
41437;DHT22;27178;49.460;10.850;2023-09-19T00:47:01;21.20;74.60
41437;DHT22;27178;49.460;10.850;2023-09-19T00:49:30;21.20;74.70
41437;DHT22;27178;49.460;10.850;2023-09-19T00:52:00;21.30;74.50
41437;DHT22;27178;49.460;10.850;2023-09-19T00:54:30;21.20;74.10
41437;DHT22;27178;49.460;10.850;2023-09-19T00:57:00;21.20;74.20
41437;DHT22;27178;49.460;10.850;2023-09-19T00:59:29;21.50;74.30
41437;DHT22;27178;49.460;10.850;2023-09-19T01:01:58;21.70;74.70
41437;DHT22;27178;49.460;10.850;2023-09-19T01:04:27;22.00;75.20
41437;DHT22;27178;49.460;10.850;2023-09-19T01:06:56;22.00;75.30
41437;DHT22;27178;49.460;10.850;2023-09-19T01:09:25;22.10;75.40
41437;DHT22;27178;49.460;10.850;2023-09-19T01:11:59;21.10;74.50
41437;DHT22;27178;49.460;10.850;2023-09-19T01:14:34;21.00;74.40
41437;DHT22;27178;49.460;10.850;2023-09-19T01:17:13;22.30;75.50
41437;DHT22;27178;49.460;10.850;2023-09-19T01:20:25;21.00;74.50
41437;DHT22;27178;49.460;10.850;2023-09-19T01:23:07;20.90;74.60
41437;DHT22;27178;49.460;10.850;2023-09-19T01:26:04;20.90;74.40
41437;DHT22;27178;49.460;10.850;2023-09-19T01:28:45;20.90;74.30
41437;DHT22;27178;49.460;10.850;2023-09-19T01:31:24;21.20;74.90
41437;DHT22;27178;49.460;10.850;2023-09-19T01:33:57;20.80;74.80
41437;DHT22;27178;49.460;10.850;2023-09-19T01:36:28;20.90;75.10
41437;DHT22;27178;49.460;10.850;2023-09-19T01:38:59;21.60;75.50
41437;DHT22;27178;49.460;10.850;2023-09-19T01:41:51;21.00;75.80
41437;DHT22;27178;49.460;10.850;2023-09-19T01:44:28;20.80;74.90
41437;DHT22;27178;49.460;10.850;2023-09-19T01:47:04;20.80;75.10
41437;DHT22;27178;49.460;10.850;2023-09-19T01:49:40;20.80;75.30
41437;DHT22;27178;49.460;10.850;2023-09-19T01:52:13;22.00;76.00
41437;DHT22;27178;49.460;10.850;2023-09-19T01:54:48;20.80;75.10
41437;DHT22;27178;49.460;10.850;2023-09-19T01:57:25;20.80;75.30
41437;DHT22;27178;49.460;10.850;2023-09-19T02:00:01;20.90;75.30
41437;DHT22;27178;49.460;10.850;2023-09-19T02:02:37;20.90;75.20
41437;DHT22;27178;49.460;10.850;2023-09-19T02:05:07;20.90;75.30
41437;DHT22;27178;49.460;10.850;2023-09-19T02:07:35;20.90;75.10
41437;DHT22;27178;49.460;10.850;2023-09-19T02:10:05;21.80;75.60
41437;DHT22;27178;49.460;10.850;2023-09-19T02:12:34;20.90;74.90
41437;DHT22;27178;49.460;10.850;2023-09-19T02:15:03;20.90;75.00
41437;DHT22;27178;49.460;10.850;2023-09-19T02:17:34;20.90;75.00
41437;DHT22;27178;49.460;10.850;2023-09-19T02:20:03;22.00;75.50
41437;DHT22;27178;49.460;10.850;2023-09-19T02:22:38;20.90;75.00
41437;DHT22;27178;49.460;10.850;2023-09-19T02:25:06;21.20;75.10
41437;DHT22;27178;49.460;10.850;2023-09-19T02:27:35;21.00;75.00
41437;DHT22;27178;49.460;10.850;2023-09-19T02:30:05;21.00;75.00
41437;DHT22;27178;49.460;10.850;2023-09-19T02:32:35;21.00;75.00
41437;DHT22;27178;49.460;10.850;2023-09-19T02:35:07;21.90;75.50
41437;DHT22;27178;49.460;10.850;2023-09-19T02:37:38;21.00;75.00
41437;DHT22;27178;49.460;10.850;2023-09-19T02:40:07;21.60;75.40
41437;DHT22;27178;49.460;10.850;2023-09-19T02:42:46;21.00;74.80
41437;DHT22;27178;49.460;10.850;2023-09-19T02:45:17;21.00;74.70
41437;DHT22;27178;49.460;10.850;2023-09-19T02:47:47;21.10;74.80
41437;DHT22;27178;49.460;10.850;2023-09-19T02:50:16;21.40;75.10
41437;DHT22;27178;49.460;10.850;2023-09-19T02:52:45;21.10;74.80
41437;DHT22;27178;49.460;10.850;2023-09-19T02:55:15;21.10;74.90
41437;DHT22;27178;49.460;10.850;2023-09-19T02:57:47;21.00;74.80
41437;DHT22;27178;49.460;10.850;2023-09-19T03:00:16;21.10;75.00
41437;DHT22;27178;49.460;10.850;2023-09-19T03:02:52;21.00;74.90
41437;DHT22;27178;49.460;10.850;2023-09-19T03:05:21;21.00;74.80
41437;DHT22;27178;49.460;10.850;2023-09-19T03:07:50;21.60;75.20
41437;DHT22;27178;49.460;10.850;2023-09-19T03:10:19;22.00;75.40
41437;DHT22;27178;49.460;10.850;2023-09-19T03:12:48;21.00;74.90
41437;DHT22;27178;49.460;10.850;2023-09-19T03:15:16;21.40;75.10
41437;DHT22;27178;49.460;10.850;2023-09-19T03:17:46;21.00;75.00
41437;DHT22;27178;49.460;10.850;2023-09-19T03:20:17;21.00;75.00
41437;DHT22;27178;49.460;10.850;2023-09-19T03:22:45;21.00;74.90
41437;DHT22;27178;49.460;10.850;2023-09-19T03:25:15;21.00;74.90
41437;DHT22;27178;49.460;10.850;2023-09-19T03:27:44;20.90;75.10
41437;DHT22;27178;49.460;10.850;2023-09-19T03:30:12;20.90;75.00
41437;DHT22;27178;49.460;10.850;2023-09-19T03:32:44;20.90;75.10
41437;DHT22;27178;49.460;10.850;2023-09-19T03:35:14;22.00;75.80
41437;DHT22;27178;49.460;10.850;2023-09-19T03:37:43;20.90;75.10
41437;DHT22;27178;49.460;10.850;2023-09-19T03:40:12;22.60;76.00
41437;DHT22;27178;49.460;10.850;2023-09-19T03:42:41;21.00;75.00
41437;DHT22;27178;49.460;10.850;2023-09-19T03:45:10;20.90;75.10
41437;DHT22;27178;49.460;10.850;2023-09-19T03:47:39;22.50;76.30
41437;DHT22;27178;49.460;10.850;2023-09-19T03:50:09;20.90;75.20
41437;DHT22;27178;49.460;10.850;2023-09-19T03:52:38;20.90;75.30
41437;DHT22;27178;49.460;10.850;2023-09-19T03:55:08;22.20;76.30
41437;DHT22;27178;49.460;10.850;2023-09-19T03:57:37;20.80;75.40
41437;DHT22;27178;49.460;10.850;2023-09-19T04:00:07;22.30;76.30
41437;DHT22;27178;49.460;10.850;2023-09-19T04:02:38;20.90;75.50
41437;DHT22;27178;49.460;10.850;2023-09-19T04:05:07;21.10;75.50
41437;DHT22;27178;49.460;10.850;2023-09-19T04:07:36;20.90;75.40
41437;DHT22;27178;49.460;10.850;2023-09-19T04:10:05;21.80;76.00
41437;DHT22;27178;49.460;10.850;2023-09-19T04:12:38;20.80;75.60
41437;DHT22;27178;49.460;10.850;2023-09-19T04:15:07;22.90;76.90
41437;DHT22;27178;49.460;10.850;2023-09-19T04:17:35;20.80;75.60
41437;DHT22;27178;49.460;10.850;2023-09-19T04:20:05;20.80;75.60
41437;DHT22;27178;49.460;10.850;2023-09-19T04:22:34;20.80;75.70
41437;DHT22;27178;49.460;10.850;2023-09-19T04:25:03;20.90;75.70
41437;DHT22;27178;49.460;10.850;2023-09-19T04:27:34;20.80;75.70
41437;DHT22;27178;49.460;10.850;2023-09-19T04:30:03;20.80;75.80
41437;DHT22;27178;49.460;10.850;2023-09-19T04:32:37;20.80;75.90
41437;DHT22;27178;49.460;10.850;2023-09-19T04:35:08;20.80;76.00
41437;DHT22;27178;49.460;10.850;2023-09-19T04:37:37;20.90;76.10
41437;DHT22;27178;49.460;10.850;2023-09-19T04:40:07;22.40;76.90
41437;DHT22;27178;49.460;10.850;2023-09-19T04:42:40;20.80;75.80
41437;DHT22;27178;49.460;10.850;2023-09-19T04:45:10;21.80;76.50
41437;DHT22;27178;49.460;10.850;2023-09-19T04:47:39;20.90;75.80
41437;DHT22;27178;49.460;10.850;2023-09-19T04:50:08;20.90;75.90
41437;DHT22;27178;49.460;10.850;2023-09-19T04:52:41;20.90;75.90
41437;DHT22;27178;49.460;10.850;2023-09-19T04:55:12;20.90;75.90
41437;DHT22;27178;49.460;10.850;2023-09-19T04:57:44;20.90;76.00
41437;DHT22;27178;49.460;10.850;2023-09-19T05:00:16;21.70;76.90
41437;DHT22;27178;49.460;10.850;2023-09-19T05:02:48;20.90;75.90
41437;DHT22;27178;49.460;10.850;2023-09-19T05:05:17;22.50;77.00
41437;DHT22;27178;49.460;10.850;2023-09-19T05:07:46;20.90;76.00
41437;DHT22;27178;49.460;10.850;2023-09-19T05:10:15;21.00;75.90
41437;DHT22;27178;49.460;10.850;2023-09-19T05:12:45;20.90;75.90
41437;DHT22;27178;49.460;10.850;2023-09-19T05:15:16;20.90;75.90
41437;DHT22;27178;49.460;10.850;2023-09-19T05:17:48;20.90;75.70
41437;DHT22;27178;49.460;10.850;2023-09-19T05:20:21;22.60;76.90
41437;DHT22;27178;49.460;10.850;2023-09-19T05:23:01;22.40;76.80
41437;DHT22;27178;49.460;10.850;2023-09-19T05:25:31;20.90;75.80
41437;DHT22;27178;49.460;10.850;2023-09-19T05:28:01;21.90;76.50
41437;DHT22;27178;49.460;10.850;2023-09-19T05:30:33;20.90;75.90
41437;DHT22;27178;49.460;10.850;2023-09-19T05:33:12;21.00;76.00
41437;DHT22;27178;49.460;10.850;2023-09-19T05:35:41;22.30;77.80
41437;DHT22;27178;49.460;10.850;2023-09-19T05:38:09;21.10;75.80
41437;DHT22;27178;49.460;10.850;2023-09-19T05:40:39;21.80;76.30
41437;DHT22;27178;49.460;10.850;2023-09-19T05:43:09;22.90;77.10
41437;DHT22;27178;49.460;10.850;2023-09-19T05:45:38;21.00;75.80
41437;DHT22;27178;49.460;10.850;2023-09-19T05:48:08;21.00;75.70
41437;DHT22;27178;49.460;10.850;2023-09-19T05:50:38;21.00;75.80
41437;DHT22;27178;49.460;10.850;2023-09-19T05:53:06;21.00;75.90
41437;DHT22;27178;49.460;10.850;2023-09-19T05:55:34;21.00;75.80
41437;DHT22;27178;49.460;10.850;2023-09-19T05:58:03;21.00;75.60
41437;DHT22;27178;49.460;10.850;2023-09-19T06:00:32;21.00;75.40
41437;DHT22;27178;49.460;10.850;2023-09-19T06:03:04;22.70;76.70
41437;DHT22;27178;49.460;10.850;2023-09-19T06:05:33;21.10;75.40
41437;DHT22;27178;49.460;10.850;2023-09-19T06:08:01;21.10;75.40
41437;DHT22;27178;49.460;10.850;2023-09-19T06:10:31;22.30;76.00
41437;DHT22;27178;49.460;10.850;2023-09-19T06:12:59;21.10;75.40
41437;DHT22;27178;49.460;10.850;2023-09-19T06:15:27;22.00;75.80
41437;DHT22;27178;49.460;10.850;2023-09-19T06:17:56;21.20;75.20
41437;DHT22;27178;49.460;10.850;2023-09-19T06:20:26;21.10;75.20
41437;DHT22;27178;49.460;10.850;2023-09-19T06:22:55;21.10;75.10
41437;DHT22;27178;49.460;10.850;2023-09-19T06:25:24;21.10;75.10
41437;DHT22;27178;49.460;10.850;2023-09-19T06:27:52;22.20;75.80
41437;DHT22;27178;49.460;10.850;2023-09-19T06:30:22;22.20;75.60
41437;DHT22;27178;49.460;10.850;2023-09-19T06:32:55;21.10;75.00
41437;DHT22;27178;49.460;10.850;2023-09-19T06:35:26;21.10;74.60
41437;DHT22;27178;49.460;10.850;2023-09-19T06:37:54;21.10;74.70
41437;DHT22;27178;49.460;10.850;2023-09-19T06:40:25;21.40;74.90
41437;DHT22;27178;49.460;10.850;2023-09-19T06:42:55;21.40;74.70
41437;DHT22;27178;49.460;10.850;2023-09-19T06:45:23;21.10;74.30
41437;DHT22;27178;49.460;10.850;2023-09-19T06:47:53;21.60;74.60
41437;DHT22;27178;49.460;10.850;2023-09-19T06:50:26;21.10;74.00
41437;DHT22;27178;49.460;10.850;2023-09-19T06:52:55;21.20;74.00
41437;DHT22;27178;49.460;10.850;2023-09-19T06:55:26;21.10;73.60
41437;DHT22;27178;49.460;10.850;2023-09-19T06:57:59;21.90;74.10
41437;DHT22;27178;49.460;10.850;2023-09-19T07:00:28;21.10;73.30
41437;DHT22;27178;49.460;10.850;2023-09-19T07:02:59;22.20;73.80
41437;DHT22;27178;49.460;10.850;2023-09-19T07:05:31;22.00;73.90
41437;DHT22;27178;49.460;10.850;2023-09-19T07:07:59;22.30;73.60
41437;DHT22;27178;49.460;10.850;2023-09-19T07:10:28;21.10;72.60
41437;DHT22;27178;49.460;10.850;2023-09-19T07:12:57;21.30;72.80
41437;DHT22;27178;49.460;10.850;2023-09-19T07:15:26;22.30;73.20
41437;DHT22;27178;49.460;10.850;2023-09-19T07:17:55;22.80;73.90
41437;DHT22;27178;49.460;10.850;2023-09-19T07:20:24;21.10;73.40
41437;DHT22;27178;49.460;10.850;2023-09-19T07:22:55;21.10;71.70
41437;DHT22;27178;49.460;10.850;2023-09-19T07:25:26;21.20;71.10
41437;DHT22;27178;49.460;10.850;2023-09-19T07:27:55;21.20;71.00
41437;DHT22;27178;49.460;10.850;2023-09-19T07:30:23;21.20;71.00
41437;DHT22;27178;49.460;10.850;2023-09-19T07:32:52;21.40;71.30
41437;DHT22;27178;49.460;10.850;2023-09-19T07:35:20;21.10;70.70
41437;DHT22;27178;49.460;10.850;2023-09-19T07:37:48;21.20;70.80
41437;DHT22;27178;49.460;10.850;2023-09-19T07:40:20;21.20;70.60
41437;DHT22;27178;49.460;10.850;2023-09-19T07:42:48;22.90;71.40
41437;DHT22;27178;49.460;10.850;2023-09-19T07:45:17;22.80;71.30
41437;DHT22;27178;49.460;10.850;2023-09-19T07:47:45;21.30;70.00
41437;DHT22;27178;49.460;10.850;2023-09-19T07:50:14;23.10;71.60
41437;DHT22;27178;49.460;10.850;2023-09-19T07:52:43;21.30;70.00
41437;DHT22;27178;49.460;10.850;2023-09-19T07:55:11;21.30;70.00
41437;DHT22;27178;49.460;10.850;2023-09-19T07:57:45;22.40;70.80
41437;DHT22;27178;49.460;10.850;2023-09-19T08:00:14;21.40;70.10
41437;DHT22;27178;49.460;10.850;2023-09-19T08:02:43;21.40;70.20
41437;DHT22;27178;49.460;10.850;2023-09-19T08:05:16;22.30;70.80
41437;DHT22;27178;49.460;10.850;2023-09-19T08:07:46;21.50;70.00
41437;DHT22;27178;49.460;10.850;2023-09-19T08:10:16;21.60;69.70
41437;DHT22;27178;49.460;10.850;2023-09-19T08:12:48;22.20;70.00
41437;DHT22;27178;49.460;10.850;2023-09-19T08:15:23;23.20;70.60
41437;DHT22;27178;49.460;10.850;2023-09-19T08:17:51;21.60;69.60
41437;DHT22;27178;49.460;10.850;2023-09-19T08:20:20;22.20;70.00
41437;DHT22;27178;49.460;10.850;2023-09-19T08:22:49;21.60;69.20
41437;DHT22;27178;49.460;10.850;2023-09-19T08:25:20;21.60;69.40
41437;DHT22;27178;49.460;10.850;2023-09-19T08:27:49;21.60;69.30
41437;DHT22;27178;49.460;10.850;2023-09-19T08:30:19;21.90;69.20
41437;DHT22;27178;49.460;10.850;2023-09-19T08:32:51;23.20;69.80
41437;DHT22;27178;49.460;10.850;2023-09-19T08:35:19;23.00;69.70
41437;DHT22;27178;49.460;10.850;2023-09-19T08:37:48;23.10;70.70
41437;DHT22;27178;49.460;10.850;2023-09-19T08:40:17;23.40;69.80
41437;DHT22;27178;49.460;10.850;2023-09-19T08:42:50;21.70;68.50
41437;DHT22;27178;49.460;10.850;2023-09-19T08:45:21;22.50;69.10
41437;DHT22;27178;49.460;10.850;2023-09-19T08:47:56;21.90;69.00
41437;DHT22;27178;49.460;10.850;2023-09-19T08:50:30;22.50;68.90
41437;DHT22;27178;49.460;10.850;2023-09-19T08:53:01;21.90;68.70
41437;DHT22;27178;49.460;10.850;2023-09-19T08:55:30;23.70;69.80
41437;DHT22;27178;49.460;10.850;2023-09-19T08:58:03;21.90;68.20
41437;DHT22;27178;49.460;10.850;2023-09-19T09:00:31;22.40;68.70
41437;DHT22;27178;49.460;10.850;2023-09-19T09:03:01;23.30;69.20
41437;DHT22;27178;49.460;10.850;2023-09-19T09:05:32;22.10;68.40
41437;DHT22;27178;49.460;10.850;2023-09-19T09:08:00;23.20;69.00
41437;DHT22;27178;49.460;10.850;2023-09-19T09:10:30;23.10;68.40
41437;DHT22;27178;49.460;10.850;2023-09-19T09:12:58;22.20;67.10
41437;DHT22;27178;49.460;10.850;2023-09-19T09:15:29;22.20;67.60
41437;DHT22;27178;49.460;10.850;2023-09-19T09:18:00;22.10;66.10
41437;DHT22;27178;49.460;10.850;2023-09-19T09:20:28;22.10;66.20
41437;DHT22;27178;49.460;10.850;2023-09-19T09:22:57;22.30;66.00
41437;DHT22;27178;49.460;10.850;2023-09-19T09:25:48;22.90;66.50
41437;DHT22;27178;49.460;10.850;2023-09-19T09:28:23;22.10;65.40
41437;DHT22;27178;49.460;10.850;2023-09-19T09:30:53;23.80;67.00
41437;DHT22;27178;49.460;10.850;2023-09-19T09:33:21;22.30;65.80
41437;DHT22;27178;49.460;10.850;2023-09-19T09:35:51;22.20;65.80
41437;DHT22;27178;49.460;10.850;2023-09-19T09:38:25;22.00;65.80
41437;DHT22;27178;49.460;10.850;2023-09-19T09:40:55;23.60;66.80
41437;DHT22;27178;49.460;10.850;2023-09-19T09:43:33;23.60;67.10
41437;DHT22;27178;49.460;10.850;2023-09-19T09:46:13;22.00;66.00
41437;DHT22;27178;49.460;10.850;2023-09-19T09:49:01;22.40;66.00
41437;DHT22;27178;49.460;10.850;2023-09-19T09:52:03;22.10;66.10
41437;DHT22;27178;49.460;10.850;2023-09-19T09:54:37;22.00;64.90
41437;DHT22;27178;49.460;10.850;2023-09-19T09:57:10;22.00;65.70
41437;DHT22;27178;49.460;10.850;2023-09-19T09:59:49;22.30;66.20
41437;DHT22;27178;49.460;10.850;2023-09-19T10:02:26;22.10;66.30
41437;DHT22;27178;49.460;10.850;2023-09-19T10:04:57;22.20;66.10
41437;DHT22;27178;49.460;10.850;2023-09-19T10:07:41;23.20;66.80
41437;DHT22;27178;49.460;10.850;2023-09-19T10:10:30;22.80;66.50
41437;DHT22;27178;49.460;10.850;2023-09-19T10:13:06;22.30;65.80
41437;DHT22;27178;49.460;10.850;2023-09-19T10:15:36;22.40;65.80
41437;DHT22;27178;49.460;10.850;2023-09-19T10:18:06;22.60;65.60
41437;DHT22;27178;49.460;10.850;2023-09-19T10:20:36;22.40;65.20
41437;DHT22;27178;49.460;10.850;2023-09-19T10:23:07;23.10;65.30
41437;DHT22;27178;49.460;10.850;2023-09-19T10:25:42;23.30;65.50
41437;DHT22;27178;49.460;10.850;2023-09-19T10:28:13;23.10;65.50
41437;DHT22;27178;49.460;10.850;2023-09-19T10:30:43;23.80;65.90
41437;DHT22;27178;49.460;10.850;2023-09-19T10:33:16;23.20;65.30
41437;DHT22;27178;49.460;10.850;2023-09-19T10:35:46;23.70;65.50
41437;DHT22;27178;49.460;10.850;2023-09-19T10:38:17;22.50;64.80
41437;DHT22;27178;49.460;10.850;2023-09-19T10:40:49;23.90;65.80
41437;DHT22;27178;49.460;10.850;2023-09-19T10:43:20;23.60;65.60
41437;DHT22;27178;49.460;10.850;2023-09-19T10:45:50;23.10;65.40
41437;DHT22;27178;49.460;10.850;2023-09-19T10:48:21;22.90;65.10
41437;DHT22;27178;49.460;10.850;2023-09-19T10:50:58;24.20;65.90
41437;DHT22;27178;49.460;10.850;2023-09-19T10:53:42;24.00;65.70
41437;DHT22;27178;49.460;10.850;2023-09-19T10:56:17;24.10;65.50
41437;DHT22;27178;49.460;10.850;2023-09-19T10:58:46;24.80;66.00
41437;DHT22;27178;49.460;10.850;2023-09-19T11:01:15;24.40;65.30
41437;DHT22;27178;49.460;10.850;2023-09-19T11:03:45;24.30;64.80
41437;DHT22;27178;49.460;10.850;2023-09-19T11:06:17;24.30;64.60
41437;DHT22;27178;49.460;10.850;2023-09-19T11:08:56;24.10;64.20
41437;DHT22;27178;49.460;10.850;2023-09-19T11:11:40;23.50;63.10
41437;DHT22;27178;49.460;10.850;2023-09-19T11:14:38;23.60;62.90
41437;DHT22;27178;49.460;10.850;2023-09-19T11:17:40;23.60;62.50
41437;DHT22;27178;49.460;10.850;2023-09-19T11:20:21;23.80;62.30
41437;DHT22;27178;49.460;10.850;2023-09-19T11:23:17;24.60;62.90
41437;DHT22;27178;49.460;10.850;2023-09-19T11:25:50;23.60;61.40
41437;DHT22;27178;49.460;10.850;2023-09-19T11:28:33;23.60;62.20
41437;DHT22;27178;49.460;10.850;2023-09-19T11:34:40;23.60;61.10
41437;DHT22;27178;49.460;10.850;2023-09-19T11:40:44;23.50;60.80
41437;DHT22;27178;49.460;10.850;2023-09-19T11:43:32;23.50;61.00
41437;DHT22;27178;49.460;10.850;2023-09-19T11:46:10;23.60;60.70
41437;DHT22;27178;49.460;10.850;2023-09-19T11:48:39;23.80;60.10
41437;DHT22;27178;49.460;10.850;2023-09-19T11:51:14;24.20;60.60
41437;DHT22;27178;49.460;10.850;2023-09-19T11:53:51;24.60;60.50
41437;DHT22;27178;49.460;10.850;2023-09-19T11:56:21;23.80;60.10
41437;DHT22;27178;49.460;10.850;2023-09-19T11:58:52;23.90;60.00
41437;DHT22;27178;49.460;10.850;2023-09-19T12:01:25;24.50;60.20
41437;DHT22;27178;49.460;10.850;2023-09-19T12:03:57;24.20;59.70
41437;DHT22;27178;49.460;10.850;2023-09-19T12:06:28;24.50;59.60
41437;DHT22;27178;49.460;10.850;2023-09-19T12:08:57;24.50;59.20
41437;DHT22;27178;49.460;10.850;2023-09-19T12:11:29;24.70;59.10
41437;DHT22;27178;49.460;10.850;2023-09-19T12:14:01;24.80;58.60
41437;DHT22;27178;49.460;10.850;2023-09-19T12:16:31;24.60;58.50
41437;DHT22;27178;49.460;10.850;2023-09-19T12:19:18;24.70;58.20
41437;DHT22;27178;49.460;10.850;2023-09-19T12:21:56;24.80;57.60
41437;DHT22;27178;49.460;10.850;2023-09-19T12:24:27;25.00;57.60
41437;DHT22;27178;49.460;10.850;2023-09-19T12:27:03;24.90;57.70
41437;DHT22;27178;49.460;10.850;2023-09-19T12:29:42;25.00;56.00
41437;DHT22;27178;49.460;10.850;2023-09-19T12:32:11;25.10;56.30
41437;DHT22;27178;49.460;10.850;2023-09-19T12:34:42;25.40;58.10
41437;DHT22;27178;49.460;10.850;2023-09-19T12:37:12;25.10;56.90
41437;DHT22;27178;49.460;10.850;2023-09-19T12:39:44;25.10;56.90
41437;DHT22;27178;49.460;10.850;2023-09-19T12:42:18;25.20;56.80
41437;DHT22;27178;49.460;10.850;2023-09-19T12:44:48;26.20;57.50
41437;DHT22;27178;49.460;10.850;2023-09-19T12:47:18;25.40;57.00
41437;DHT22;27178;49.460;10.850;2023-09-19T12:50:09;25.90;56.80
41437;DHT22;27178;49.460;10.850;2023-09-19T12:52:46;25.60;56.40
41437;DHT22;27178;49.460;10.850;2023-09-19T12:55:23;27.00;57.30
41437;DHT22;27178;49.460;10.850;2023-09-19T12:58:12;25.90;56.30
41437;DHT22;27178;49.460;10.850;2023-09-19T13:00:42;26.00;56.30
41437;DHT22;27178;49.460;10.850;2023-09-19T13:03:12;26.30;56.40
41437;DHT22;27178;49.460;10.850;2023-09-19T13:05:54;26.30;56.00
41437;DHT22;27178;49.460;10.850;2023-09-19T13:08:27;26.60;55.10
41437;DHT22;27178;49.460;10.850;2023-09-19T13:11:10;26.60;55.40
41437;DHT22;27178;49.460;10.850;2023-09-19T13:13:44;27.20;55.00
41437;DHT22;27178;49.460;10.850;2023-09-19T13:16:16;26.90;55.30
41437;DHT22;27178;49.460;10.850;2023-09-19T13:18:50;27.10;55.10
41437;DHT22;27178;49.460;10.850;2023-09-19T13:21:28;27.20;55.30
41437;DHT22;27178;49.460;10.850;2023-09-19T13:24:17;27.40;54.10
41437;DHT22;27178;49.460;10.850;2023-09-19T13:26:46;27.40;54.00
41437;DHT22;27178;49.460;10.850;2023-09-19T13:29:15;27.60;54.60
41437;DHT22;27178;49.460;10.850;2023-09-19T13:31:46;27.70;54.30
41437;DHT22;27178;49.460;10.850;2023-09-19T13:34:15;27.70;54.20
41437;DHT22;27178;49.460;10.850;2023-09-19T13:36:45;27.90;53.90
41437;DHT22;27178;49.460;10.850;2023-09-19T13:39:15;28.00;53.10
41437;DHT22;27178;49.460;10.850;2023-09-19T13:41:44;28.00;52.50
41437;DHT22;27178;49.460;10.850;2023-09-19T13:44:13;28.00;51.90
41437;DHT22;27178;49.460;10.850;2023-09-19T13:46:43;28.00;51.80
41437;DHT22;27178;49.460;10.850;2023-09-19T13:49:13;28.10;51.70
41437;DHT22;27178;49.460;10.850;2023-09-19T13:51:41;28.60;52.50
41437;DHT22;27178;49.460;10.850;2023-09-19T13:54:11;28.20;51.10
41437;DHT22;27178;49.460;10.850;2023-09-19T13:56:41;28.20;51.30
41437;DHT22;27178;49.460;10.850;2023-09-19T13:59:09;28.20;51.30
41437;DHT22;27178;49.460;10.850;2023-09-19T14:01:38;28.30;51.70
41437;DHT22;27178;49.460;10.850;2023-09-19T14:04:08;28.50;52.20
41437;DHT22;27178;49.460;10.850;2023-09-19T14:06:41;28.60;51.60
41437;DHT22;27178;49.460;10.850;2023-09-19T14:09:10;28.80;51.10
41437;DHT22;27178;49.460;10.850;2023-09-19T14:11:40;29.00;51.10
41437;DHT22;27178;49.460;10.850;2023-09-19T14:14:09;29.10;50.40
41437;DHT22;27178;49.460;10.850;2023-09-19T14:16:38;29.30;49.90
41437;DHT22;27178;49.460;10.850;2023-09-19T14:19:09;29.30;49.60
41437;DHT22;27178;49.460;10.850;2023-09-19T14:21:37;29.40;49.90
41437;DHT22;27178;49.460;10.850;2023-09-19T14:24:06;29.50;49.40
41437;DHT22;27178;49.460;10.850;2023-09-19T14:26:36;29.60;49.40
41437;DHT22;27178;49.460;10.850;2023-09-19T14:29:04;29.60;49.50
41437;DHT22;27178;49.460;10.850;2023-09-19T14:31:37;29.70;49.50
41437;DHT22;27178;49.460;10.850;2023-09-19T14:34:07;29.80;49.80
41437;DHT22;27178;49.460;10.850;2023-09-19T14:36:38;29.90;48.90
41437;DHT22;27178;49.460;10.850;2023-09-19T14:39:06;30.00;49.00
41437;DHT22;27178;49.460;10.850;2023-09-19T14:41:35;30.10;48.70
41437;DHT22;27178;49.460;10.850;2023-09-19T14:44:03;30.30;46.20
41437;DHT22;27178;49.460;10.850;2023-09-19T14:46:32;30.30;47.80
41437;DHT22;27178;49.460;10.850;2023-09-19T14:49:00;30.40;48.10
41437;DHT22;27178;49.460;10.850;2023-09-19T14:51:31;30.40;48.20
41437;DHT22;27178;49.460;10.850;2023-09-19T14:54:00;30.50;48.10
41437;DHT22;27178;49.460;10.850;2023-09-19T14:56:29;30.60;47.00
41437;DHT22;27178;49.460;10.850;2023-09-19T14:58:58;30.70;47.00
41437;DHT22;27178;49.460;10.850;2023-09-19T15:01:27;30.70;47.10
41437;DHT22;27178;49.460;10.850;2023-09-19T15:03:56;30.80;47.30
41437;DHT22;27178;49.460;10.850;2023-09-19T15:06:24;30.90;46.70
41437;DHT22;27178;49.460;10.850;2023-09-19T15:08:53;31.00;47.00
41437;DHT22;27178;49.460;10.850;2023-09-19T15:11:23;31.00;46.90
41437;DHT22;27178;49.460;10.850;2023-09-19T15:13:52;31.10;46.10
41437;DHT22;27178;49.460;10.850;2023-09-19T15:16:20;31.30;46.50
41437;DHT22;27178;49.460;10.850;2023-09-19T15:18:49;31.30;46.40
41437;DHT22;27178;49.460;10.850;2023-09-19T15:21:19;31.30;46.40
41437;DHT22;27178;49.460;10.850;2023-09-19T15:23:46;31.30;46.20
41437;DHT22;27178;49.460;10.850;2023-09-19T15:26:15;31.30;46.00
41437;DHT22;27178;49.460;10.850;2023-09-19T15:28:50;31.40;45.90
41437;DHT22;27178;49.460;10.850;2023-09-19T15:31:18;31.30;44.40
41437;DHT22;27178;49.460;10.850;2023-09-19T15:33:47;31.20;45.20
41437;DHT22;27178;49.460;10.850;2023-09-19T15:36:15;31.10;44.90
41437;DHT22;27178;49.460;10.850;2023-09-19T15:38:56;31.10;45.20
41437;DHT22;27178;49.460;10.850;2023-09-19T15:41:25;31.00;44.90
41437;DHT22;27178;49.460;10.850;2023-09-19T15:43:55;30.80;45.20
41437;DHT22;27178;49.460;10.850;2023-09-19T15:46:23;30.70;45.30
41437;DHT22;27178;49.460;10.850;2023-09-19T15:48:54;30.60;45.30
41437;DHT22;27178;49.460;10.850;2023-09-19T15:51:21;30.50;44.50